Alvadore, Oregon
Current Conditions -  °F | °C
As of 6:54 PM on Saturday 25 Oct 2014 (Local Time) from KEUG Reporting Station
Broken Clouds Broken Clouds  
Wind Chill: 12°   Ceiling: 5500
Heat Index: 12°   Visibility: 10mi
Dew Point:   Wind: 13mph
Humidity: 83%   Direction: 200°SSW
Pressure: 29.85"   Gusts: NA
Location:  44.13°N, 123.26°W
Report Text: KEUG 260154Z 20011KT 10SM FEW034 SCT043 BKN055 12/09 A2985 RMK AO2 RAB02E08 SLP110 P0000 T01220094 $
Loading
Personal Weather Stations






























Interactive Weather Map
Tropical Storm Tracking
New forecast layout! Learn more

10-Day Weather Forecast

Advertisements
Track Severe Weather on mobile